Sloman Herakles — V2FY4 — position and weather

sailwx.info

Track history (hours):
 
Tides and Currents Weather Stations Pressure Air Temp Water Temp Dewpoint Dewpoint Depression Visibility Wind Speed Wind Dir Waves Ship Positions

Sloman Herakles

Last reported at 2017-Oct-15 23:50 UTC. Time now 2017-Oct-22 08:04 UTC.
Position N 29°30' W 094°52'.

Length 145 m; draft 9.2 m.

Type: Tanker. MMSI: 305851000.

Date/timePositionNaut miles runAvg speedWind from/ knotsBaromVisibWave heightAir tempDewpointWater temp
2017-Oct-15 23:50N 29°30' W 094°52'411.1
2017-Oct-15 23:30N 29°33' W 094°54'510.6
2017-Oct-15 23:00N 29°37' W 094°58'510.2
2017-Oct-15 22:30N 29°42' W 094°60'4 7.3
2017-Oct-15 22:00N 29°44' W 095°03'5 5.4
2017-Oct-15 21:00N 29°44' W 095°09'7 0.1
2017-Oct-13 22:45N 29°45' W 095°17'3 2.7
2017-Oct-13 21:38N 29°43' W 095°14'3 5.0
2017-Oct-13 21:06N 29°45' W 095°11'1 5.3
2017-Oct-13 21:00N 29°45' W 095°11'3 6.2
2017-Oct-13 20:29N 29°44' W 095°07'3 5.8
2017-Oct-13 20:00N 29°45' W 095°04'4 7.1
2017-Oct-13 19:30N 29°42' W 095°01'4 8.4
2017-Oct-13 19:00N 29°39' W 094°58'510.5
2017-Oct-13 18:30N 29°34' W 094°56'611.3
2017-Oct-13 18:00N 29°30' W 094°52'610.9
2017-Oct-13 17:25N 29°24' W 094°49'11 0.9
2017-Oct-13 05:18N 29°16' W 094°39'0 0.0
2017-Oct-13 04:54N 29°16' W 094°39'0 0.0
2017-Oct-13 04:30N 29°16' W 094°39'14 1.0
2017-Oct-12 14:22N 29°26' W 094°50'410.3
2017-Oct-12 13:59N 29°30' W 094°52'511.0
2017-Oct-12 13:30N 29°34' W 094°55'510.8
2017-Oct-12 13:00N 29°39' W 094°58'5 9.7
2017-Oct-12 12:30N 29°43' W 095°01'4 7.7
2017-Oct-12 12:01N 29°46' W 095°04'4 6.7
2017-Oct-12 11:29N 29°44' W 095°08'3 6.5
2017-Oct-12 11:00N 29°45' W 095°11'3 5.7
2017-Oct-12 10:30N 29°43' W 095°14'  
2017-Oct-09 21:11N 29°30' W 094°52'211.5
2017-Oct-09 21:00N 29°31' W 094°53'610.8
2017-Oct-09 20:27N 29°36' W 094°57'4 9.8
2017-Oct-09 20:00N 29°40' W 094°59'4 8.4
2017-Oct-09 19:31N 29°44' W 095°02'4 6.3
2017-Oct-09 18:55N 29°45' W 095°06'3 6.1
2017-Oct-09 18:26N 29°44' W 095°09'3 6.1
2017-Oct-09 18:00N 29°45' W 095°12'2 0.1
2017-Oct-08 12:53N 29°43' W 095°14'0 0.0
2017-Oct-08 12:19N 29°43' W 095°14'1 2.0
2017-Oct-08 12:00N 29°44' W 095°13'2 5.0
2017-Oct-08 11:30N 29°45' W 095°11'3 6.2
2017-Oct-08 11:00N 29°44' W 095°07'3 6.4
2017-Oct-08 10:30N 29°45' W 095°04'3 6.6
2017-Oct-08 10:00N 29°43' W 095°01'4 7.5
2017-Oct-08 09:30N 29°40' W 094°59'611.1
2017-Oct-08 09:00N 29°35' W 094°56'611.1
2017-Oct-08 08:30N 29°30' W 094°52'  
Track history (hours):
 
Tides and Currents Weather Stations Pressure Air Temp Water Temp Dewpoint Dewpoint Depression Visibility Wind Speed Wind Dir Waves Ship Positions

Sloman Herakles

Last reported at 2017-Oct-15 23:50 UTC. Time now 2017-Oct-22 08:04 UTC.
Position N 29°30' W 094°52'.

Length 145 m; draft 9.2 m.

Type: Tanker. MMSI: 305851000.

Date/timePositionNaut miles runAvg speedWind from/ knotsBaromVisibWave heightAir tempDewpointWater temp
2017-Oct-15 23:50N 29°30' W 094°52'411.1
2017-Oct-15 23:30N 29°33' W 094°54'510.6
2017-Oct-15 23:00N 29°37' W 094°58'510.2
2017-Oct-15 22:30N 29°42' W 094°60'4 7.3
2017-Oct-15 22:00N 29°44' W 095°03'5 5.4
2017-Oct-15 21:00N 29°44' W 095°09'7 0.1
2017-Oct-13 22:45N 29°45' W 095°17'3 2.7
2017-Oct-13 21:38N 29°43' W 095°14'3 5.0
2017-Oct-13 21:06N 29°45' W 095°11'1 5.3
2017-Oct-13 21:00N 29°45' W 095°11'3 6.2
2017-Oct-13 20:29N 29°44' W 095°07'3 5.8
2017-Oct-13 20:00N 29°45' W 095°04'4 7.1
2017-Oct-13 19:30N 29°42' W 095°01'4 8.4
2017-Oct-13 19:00N 29°39' W 094°58'510.5
2017-Oct-13 18:30N 29°34' W 094°56'611.3
2017-Oct-13 18:00N 29°30' W 094°52'610.9
2017-Oct-13 17:25N 29°24' W 094°49'11 0.9
2017-Oct-13 05:18N 29°16' W 094°39'0 0.0
2017-Oct-13 04:54N 29°16' W 094°39'0 0.0
2017-Oct-13 04:30N 29°16' W 094°39'14 1.0
2017-Oct-12 14:22N 29°26' W 094°50'410.3
2017-Oct-12 13:59N 29°30' W 094°52'511.0
2017-Oct-12 13:30N 29°34' W 094°55'510.8
2017-Oct-12 13:00N 29°39' W 094°58'5 9.7
2017-Oct-12 12:30N 29°43' W 095°01'4 7.7
2017-Oct-12 12:01N 29°46' W 095°04'4 6.7
2017-Oct-12 11:29N 29°44' W 095°08'3 6.5
2017-Oct-12 11:00N 29°45' W 095°11'3 5.7
2017-Oct-12 10:30N 29°43' W 095°14'  
2017-Oct-09 21:11N 29°30' W 094°52'211.5
2017-Oct-09 21:00N 29°31' W 094°53'610.8
2017-Oct-09 20:27N 29°36' W 094°57'4 9.8
2017-Oct-09 20:00N 29°40' W 094°59'4 8.4
2017-Oct-09 19:31N 29°44' W 095°02'4 6.3
2017-Oct-09 18:55N 29°45' W 095°06'3 6.1
2017-Oct-09 18:26N 29°44' W 095°09'3 6.1
2017-Oct-09 18:00N 29°45' W 095°12'2 0.1
2017-Oct-08 12:53N 29°43' W 095°14'0 0.0
2017-Oct-08 12:19N 29°43' W 095°14'1 2.0
2017-Oct-08 12:00N 29°44' W 095°13'2 5.0
2017-Oct-08 11:30N 29°45' W 095°11'3 6.2
2017-Oct-08 11:00N 29°44' W 095°07'3 6.4
2017-Oct-08 10:30N 29°45' W 095°04'3 6.6
2017-Oct-08 10:00N 29°43' W 095°01'4 7.5
2017-Oct-08 09:30N 29°40' W 094°59'611.1
2017-Oct-08 09:00N 29°35' W 094°56'611.1
2017-Oct-08 08:30N 29°30' W 094°52'  

Dump ship's entire track history